createdAt,value
2019-03-20T00:01:31.690Z,-0.05
2019-03-20T00:06:54.244Z,-0.41
2019-03-20T00:12:12.838Z,-0.45
2019-03-20T00:17:33.108Z,-0.44
2019-03-20T00:22:51.736Z,-0.57
2019-03-20T00:28:10.411Z,-0.43
2019-03-20T00:33:29.755Z,-0.63
2019-03-20T00:38:50.869Z,-0.50
2019-03-20T00:44:10.378Z,-0.62
2019-03-20T00:49:29.043Z,-0.70
2019-03-20T00:54:50.164Z,-0.70
2019-03-20T01:00:19.383Z,-0.66
2019-03-20T01:05:42.024Z,-0.76
2019-03-20T01:11:01.804Z,-0.90
2019-03-20T01:16:22.411Z,-0.74
2019-03-20T01:21:41.032Z,-0.46
2019-03-20T01:27:00.345Z,-0.54
2019-03-20T01:32:20.331Z,-0.06
2019-03-20T01:37:43.898Z,0.14
2019-03-20T01:43:02.633Z,0.00
2019-03-20T01:48:23.645Z,0.33
2019-03-20T01:53:43.748Z,0.01
2019-03-20T01:59:04.207Z,0.56
2019-03-20T02:04:23.983Z,0.98
2019-03-20T02:15:03.894Z,0.56
2019-03-20T02:20:22.529Z,0.53
2019-03-20T02:25:41.158Z,0.73
2019-03-20T02:31:03.060Z,0.77
2019-03-20T02:36:43.167Z,0.79
2019-03-20T02:42:03.198Z,0.72
2019-03-20T02:47:23.112Z,0.77
2019-03-20T02:52:42.760Z,0.93
2019-03-20T02:58:20.654Z,0.76
2019-03-20T03:03:39.785Z,0.61
2019-03-20T03:08:58.418Z,0.71
2019-03-20T03:14:24.531Z,0.90
2019-03-20T03:19:47.215Z,0.78
2019-03-20T03:25:08.103Z,0.77
2019-03-20T03:30:28.157Z,0.71
2019-03-20T03:35:48.503Z,0.59
2019-03-20T03:41:06.797Z,0.58
2019-03-20T03:46:28.819Z,0.38
2019-03-20T03:51:50.295Z,0.54
2019-03-20T03:57:10.455Z,0.29
2019-03-20T04:02:29.081Z,0.14
2019-03-20T04:07:49.383Z,0.16
2019-03-20T04:13:08.787Z,0.18
2019-03-20T04:18:27.470Z,0.10
2019-03-20T04:23:46.141Z,0.09
2019-03-20T04:29:05.875Z,0.06
2019-03-20T04:34:25.615Z,0.17
2019-03-20T04:39:44.240Z,0.19
2019-03-20T04:45:02.867Z,0.39
2019-03-20T04:50:26.806Z,0.16
2019-03-20T04:55:46.826Z,0.10
2019-03-20T05:01:07.087Z,-0.06
2019-03-20T05:06:28.586Z,0.09
2019-03-20T05:11:47.236Z,0.12
2019-03-20T05:17:10.858Z,0.18
2019-03-20T05:22:33.072Z,0.63
2019-03-20T05:27:51.716Z,0.75
2019-03-20T05:33:11.074Z,0.93
2019-03-20T05:38:33.815Z,1.13
2019-03-20T05:43:52.706Z,1.33
2019-03-20T05:49:16.329Z,1.26
2019-03-20T06:00:24.698Z,1.56
2019-03-20T06:05:46.642Z,3.70
2019-03-20T06:11:06.661Z,3.70
2019-03-20T06:16:25.300Z,4.76
2019-03-20T06:21:45.416Z,5.36
2019-03-20T06:27:05.692Z,5.36
2019-03-20T06:32:25.535Z,4.38
2019-03-20T06:37:45.570Z,4.04
2019-03-20T06:43:04.209Z,3.97
2019-03-20T06:48:25.670Z,4.10
2019-03-20T06:53:45.732Z,4.25
2019-03-20T06:59:31.093Z,4.30
2019-03-20T07:05:13.517Z,4.22
2019-03-20T07:10:52.887Z,4.29
2019-03-20T07:16:13.008Z,4.61
2019-03-20T07:21:31.655Z,4.98
2019-03-20T07:26:50.779Z,5.17
2019-03-20T07:32:16.081Z,5.28
2019-03-20T07:37:37.987Z,5.75
2019-03-20T07:43:08.824Z,5.75
2019-03-20T07:48:22.706Z,6.11
2019-03-20T07:53:41.695Z,6.59
2019-03-20T07:59:19.954Z,6.88
2019-03-20T08:04:39.988Z,6.99
2019-03-20T08:10:03.885Z,7.25
2019-03-20T08:15:22.502Z,7.60
2019-03-20T08:20:45.015Z,7.75
2019-03-20T08:26:17.859Z,7.93
2019-03-20T08:31:34.669Z,8.19
2019-03-20T08:36:53.750Z,8.66
2019-03-20T08:42:13.724Z,9.03
2019-03-20T08:47:35.140Z,9.18
2019-03-20T08:52:53.893Z,9.14
2019-03-20T09:03:31.936Z,10.03
2019-03-20T09:08:54.119Z,9.86
2019-03-20T09:14:33.442Z,10.21
2019-03-20T09:19:51.933Z,10.80
2019-03-20T09:25:19.743Z,11.06
2019-03-20T09:30:39.880Z,11.34
2019-03-20T09:35:58.595Z,10.34
2019-03-20T09:41:17.232Z,10.55
2019-03-20T09:46:37.184Z,10.31
2019-03-20T09:51:58.837Z,10.90
2019-03-20T09:57:17.568Z,11.28
2019-03-20T10:07:55.480Z,11.48
2019-03-20T10:13:14.124Z,11.24
2019-03-20T10:18:32.818Z,11.15
2019-03-20T10:23:52.257Z,11.54
2019-03-20T10:29:10.836Z,11.81
2019-03-20T10:34:39.471Z,11.96
2019-03-20T10:39:54.300Z,12.10
2019-03-20T10:45:33.391Z,12.50
2019-03-20T10:50:54.717Z,12.32
2019-03-20T10:56:13.330Z,12.30
2019-03-20T11:01:51.513Z,12.22
2019-03-20T11:07:17.654Z,11.99
2019-03-20T11:12:30.050Z,11.67
2019-03-20T11:17:52.349Z,11.70
2019-03-20T11:23:13.773Z,11.73
2019-03-20T11:28:33.865Z,12.13
2019-03-20T11:33:53.429Z,11.88
2019-03-20T11:39:12.532Z,11.96
2019-03-20T11:44:31.162Z,11.86
2019-03-20T11:49:51.954Z,11.95
2019-03-20T11:55:12.057Z,12.07
2019-03-20T12:00:30.968Z,12.36
2019-03-20T12:05:51.069Z,12.38
2019-03-20T12:11:10.798Z,12.15
2019-03-20T12:16:33.912Z,12.15
2019-03-20T12:21:56.449Z,12.38
2019-03-20T12:27:15.838Z,12.40
2019-03-20T12:32:38.816Z,12.29
2019-03-20T12:38:13.362Z,12.64
2019-03-20T12:43:22.489Z,12.68
2019-03-20T12:48:41.112Z,12.39
2019-03-20T12:54:01.291Z,12.21
2019-03-20T12:59:39.319Z,12.38
2019-03-20T13:04:57.882Z,12.54
2019-03-20T13:10:21.809Z,12.53
2019-03-20T13:15:42.859Z,13.01
2019-03-20T13:20:59.634Z,13.01
2019-03-20T13:31:45.129Z,13.01
2019-03-20T13:37:06.895Z,12.70
2019-03-20T13:42:25.854Z,12.84
2019-03-20T13:47:44.501Z,12.95
2019-03-20T13:53:03.166Z,12.97
2019-03-20T13:58:21.740Z,13.08
2019-03-20T14:03:41.866Z,13.33
2019-03-20T14:09:06.128Z,13.49
2019-03-20T14:14:21.937Z,13.30
2019-03-20T14:19:42.060Z,13.36
2019-03-20T14:25:02.175Z,13.46
2019-03-20T14:30:48.867Z,13.14
2019-03-20T14:36:08.902Z,13.05
2019-03-20T14:41:28.688Z,13.18
2019-03-20T14:46:54.247Z,13.10
2019-03-20T14:52:13.663Z,13.08
2019-03-20T15:03:13.034Z,12.80
2019-03-20T15:08:31.768Z,12.60
2019-03-20T15:13:51.819Z,12.63
2019-03-20T15:19:12.023Z,12.72
2019-03-20T15:24:30.716Z,12.63
2019-03-20T15:29:50.831Z,12.54
2019-03-20T15:35:09.781Z,12.54
2019-03-20T15:40:29.632Z,12.60
2019-03-20T15:45:48.288Z,12.52
2019-03-20T15:51:06.928Z,12.33
2019-03-20T15:56:45.728Z,12.23
2019-03-20T16:02:07.364Z,12.20
2019-03-20T16:07:29.108Z,12.40
2019-03-20T16:12:49.227Z,12.38
2019-03-20T16:18:10.567Z,12.37
2019-03-20T16:23:29.213Z,12.30
2019-03-20T16:28:49.130Z,12.32
2019-03-20T16:34:08.949Z,12.17
2019-03-20T16:39:49.795Z,12.15
2019-03-20T16:45:14.136Z,12.01
2019-03-20T16:50:37.785Z,11.90
2019-03-20T16:56:00.165Z,11.67
2019-03-20T17:01:21.999Z,11.58
2019-03-20T17:06:40.613Z,11.56
2019-03-20T17:11:59.332Z,11.57
2019-03-20T17:17:25.074Z,11.49
2019-03-20T17:22:45.248Z,11.44
2019-03-20T17:28:05.663Z,11.30
2019-03-20T17:33:25.735Z,10.96
2019-03-20T17:38:44.408Z,10.71
2019-03-20T17:44:05.746Z,10.66
2019-03-20T17:49:24.408Z,10.45
2019-03-20T17:54:44.430Z,10.15
2019-03-20T18:00:15.704Z,9.94
2019-03-20T18:05:34.403Z,9.76
2019-03-20T18:10:52.349Z,9.54
2019-03-20T18:16:10.980Z,9.40
2019-03-20T18:21:32.336Z,9.20
2019-03-20T18:26:54.004Z,9.05
2019-03-20T18:32:32.198Z,8.64
2019-03-20T18:37:51.543Z,8.57
2019-03-20T18:43:11.663Z,8.28
2019-03-20T18:48:31.768Z,8.00
2019-03-20T18:53:50.390Z,7.89
2019-03-20T18:59:10.604Z,7.70
2019-03-20T19:04:29.736Z,7.59
2019-03-20T19:09:48.302Z,7.50
2019-03-20T19:15:13.140Z,7.48
2019-03-20T19:20:32.035Z,7.39
2019-03-20T19:25:53.557Z,7.28
2019-03-20T19:31:20.637Z,7.24
2019-03-20T19:36:48.124Z,7.30
2019-03-20T19:42:06.831Z,7.15
2019-03-20T19:47:26.792Z,6.92
2019-03-20T19:52:51.582Z,6.76
2019-03-20T19:58:11.818Z,6.63
2019-03-20T20:03:30.527Z,6.50
2019-03-20T20:08:51.279Z,6.24
2019-03-20T20:14:14.147Z,6.12
2019-03-20T20:19:32.893Z,5.97
2019-03-20T20:24:53.040Z,5.96
2019-03-20T20:30:11.531Z,5.90
2019-03-20T20:35:33.549Z,5.83
2019-03-20T20:40:53.682Z,5.54
2019-03-20T20:46:13.332Z,5.40
2019-03-20T20:51:32.770Z,5.36
2019-03-20T20:56:52.386Z,5.32
2019-03-20T21:02:12.493Z,5.14
2019-03-20T21:07:34.784Z,5.03
2019-03-20T21:12:57.136Z,4.77
2019-03-20T21:18:13.968Z,4.68
2019-03-20T21:23:41.200Z,4.69
2019-03-20T21:29:39.889Z,4.74
2019-03-20T21:35:38.659Z,4.52
2019-03-20T21:41:31.176Z,4.39
2019-03-20T21:47:30.880Z,4.26
2019-03-20T21:52:51.028Z,4.21
2019-03-20T21:58:30.522Z,4.19
2019-03-20T22:03:50.664Z,4.18
2019-03-20T22:09:10.478Z,4.09
2019-03-20T22:14:32.018Z,3.93
2019-03-20T22:20:29.145Z,3.77
2019-03-20T22:25:57.365Z,3.79
2019-03-20T22:31:16.011Z,3.83
2019-03-20T22:36:36.940Z,3.66
2019-03-20T22:42:04.647Z,3.82
2019-03-20T22:48:02.051Z,3.60
2019-03-20T22:53:41.338Z,3.47
2019-03-20T22:59:01.213Z,3.35
2019-03-20T23:04:24.071Z,3.36
2019-03-20T23:09:42.731Z,3.23
2019-03-20T23:15:01.379Z,3.13
2019-03-20T23:20:26.555Z,3.22
2019-03-20T23:25:47.551Z,2.97
2019-03-20T23:31:25.577Z,2.97
2019-03-20T23:36:45.194Z,2.99
2019-03-20T23:42:04.328Z,3.28
2019-03-20T23:47:27.614Z,3.10
2019-03-20T23:52:46.286Z,3.19
2019-03-20T23:58:05.182Z,2.94
